sensor_id;sensor_type;location;lat;lon;timestamp;P1;durP1;ratioP1;P2;durP2;ratioP2
8066;SDS011;4076;48.076;9.118;2023-03-19T00:01:05;6.93;;;3.80;;
8066;SDS011;4076;48.076;9.118;2023-03-19T00:03:32;8.00;;;4.20;;
8066;SDS011;4076;48.076;9.118;2023-03-19T00:05:58;5.30;;;3.77;;
8066;SDS011;4076;48.076;9.118;2023-03-19T00:08:24;3.60;;;2.47;;
8066;SDS011;4076;48.076;9.118;2023-03-19T00:10:50;5.80;;;3.00;;
8066;SDS011;4076;48.076;9.118;2023-03-19T00:13:16;5.13;;;2.73;;
8066;SDS011;4076;48.076;9.118;2023-03-19T00:15:42;5.10;;;2.67;;
8066;SDS011;4076;48.076;9.118;2023-03-19T00:18:07;5.20;;;3.30;;
8066;SDS011;4076;48.076;9.118;2023-03-19T00:20:33;4.73;;;4.03;;
8066;SDS011;4076;48.076;9.118;2023-03-19T00:22:59;6.00;;;3.57;;
8066;SDS011;4076;48.076;9.118;2023-03-19T00:25:24;4.90;;;2.30;;
8066;SDS011;4076;48.076;9.118;2023-03-19T00:27:50;4.33;;;2.30;;
8066;SDS011;4076;48.076;9.118;2023-03-19T00:30:18;5.07;;;3.50;;
8066;SDS011;4076;48.076;9.118;2023-03-19T00:32:43;4.20;;;2.90;;
8066;SDS011;4076;48.076;9.118;2023-03-19T00:35:09;5.27;;;3.13;;
8066;SDS011;4076;48.076;9.118;2023-03-19T00:37:35;4.50;;;2.63;;
8066;SDS011;4076;48.076;9.118;2023-03-19T00:40:01;4.60;;;2.40;;
8066;SDS011;4076;48.076;9.118;2023-03-19T00:42:28;4.50;;;2.30;;
8066;SDS011;4076;48.076;9.118;2023-03-19T00:44:55;5.23;;;2.97;;
8066;SDS011;4076;48.076;9.118;2023-03-19T00:47:20;6.70;;;3.53;;
8066;SDS011;4076;48.076;9.118;2023-03-19T00:49:47;4.97;;;3.53;;
8066;SDS011;4076;48.076;9.118;2023-03-19T00:52:12;6.13;;;4.00;;
8066;SDS011;4076;48.076;9.118;2023-03-19T00:54:38;5.80;;;3.17;;
8066;SDS011;4076;48.076;9.118;2023-03-19T00:57:04;5.67;;;2.97;;
8066;SDS011;4076;48.076;9.118;2023-03-19T00:59:30;4.57;;;3.37;;
8066;SDS011;4076;48.076;9.118;2023-03-19T01:01:56;6.00;;;3.10;;
8066;SDS011;4076;48.076;9.118;2023-03-19T01:04:21;6.40;;;2.67;;
8066;SDS011;4076;48.076;9.118;2023-03-19T01:06:47;5.30;;;2.77;;
8066;SDS011;4076;48.076;9.118;2023-03-19T01:09:13;5.70;;;2.67;;
8066;SDS011;4076;48.076;9.118;2023-03-19T01:11:39;3.20;;;1.93;;
8066;SDS011;4076;48.076;9.118;2023-03-19T01:14:05;4.30;;;2.40;;
8066;SDS011;4076;48.076;9.118;2023-03-19T01:16:30;4.03;;;2.70;;
8066;SDS011;4076;48.076;9.118;2023-03-19T01:18:58;5.20;;;3.30;;
8066;SDS011;4076;48.076;9.118;2023-03-19T01:21:23;4.63;;;3.00;;
8066;SDS011;4076;48.076;9.118;2023-03-19T01:23:49;10.93;;;3.17;;
8066;SDS011;4076;48.076;9.118;2023-03-19T01:26:16;10.47;;;3.43;;
8066;SDS011;4076;48.076;9.118;2023-03-19T01:28:42;5.90;;;5.30;;
8066;SDS011;4076;48.076;9.118;2023-03-19T01:31:08;5.33;;;3.63;;
8066;SDS011;4076;48.076;9.118;2023-03-19T01:33:34;7.50;;;4.00;;
8066;SDS011;4076;48.076;9.118;2023-03-19T01:36:00;6.30;;;3.43;;
8066;SDS011;4076;48.076;9.118;2023-03-19T01:38:29;4.73;;;2.90;;
8066;SDS011;4076;48.076;9.118;2023-03-19T01:40:56;5.70;;;3.10;;
8066;SDS011;4076;48.076;9.118;2023-03-19T01:43:26;4.63;;;2.50;;
8066;SDS011;4076;48.076;9.118;2023-03-19T01:45:57;4.40;;;3.20;;
8066;SDS011;4076;48.076;9.118;2023-03-19T01:48:28;6.37;;;3.27;;
8066;SDS011;4076;48.076;9.118;2023-03-19T01:51:10;9.47;;;4.13;;
8066;SDS011;4076;48.076;9.118;2023-03-19T01:53:40;7.30;;;3.70;;
8066;SDS011;4076;48.076;9.118;2023-03-19T01:56:19;5.90;;;3.30;;
8066;SDS011;4076;48.076;9.118;2023-03-19T01:58:45;5.27;;;3.13;;
8066;SDS011;4076;48.076;9.118;2023-03-19T02:01:12;5.83;;;3.00;;
8066;SDS011;4076;48.076;9.118;2023-03-19T02:03:39;8.37;;;3.87;;
8066;SDS011;4076;48.076;9.118;2023-03-19T02:06:06;6.03;;;3.40;;
8066;SDS011;4076;48.076;9.118;2023-03-19T02:08:32;5.40;;;3.47;;
8066;SDS011;4076;48.076;9.118;2023-03-19T02:11:00;4.30;;;2.90;;
8066;SDS011;4076;48.076;9.118;2023-03-19T02:13:26;5.23;;;3.00;;
8066;SDS011;4076;48.076;9.118;2023-03-19T02:15:51;9.50;;;3.87;;
8066;SDS011;4076;48.076;9.118;2023-03-19T02:18:18;7.03;;;3.60;;
8066;SDS011;4076;48.076;9.118;2023-03-19T02:21:02;5.80;;;3.30;;
8066;SDS011;4076;48.076;9.118;2023-03-19T02:23:33;6.87;;;4.10;;
8066;SDS011;4076;48.076;9.118;2023-03-19T02:26:19;6.27;;;3.60;;
8066;SDS011;4076;48.076;9.118;2023-03-19T02:28:48;6.67;;;4.00;;
8066;SDS011;4076;48.076;9.118;2023-03-19T02:31:15;7.97;;;3.30;;
8066;SDS011;4076;48.076;9.118;2023-03-19T02:33:42;6.33;;;3.00;;
8066;SDS011;4076;48.076;9.118;2023-03-19T02:36:12;6.70;;;4.00;;
8066;SDS011;4076;48.076;9.118;2023-03-19T02:38:42;4.83;;;2.87;;
8066;SDS011;4076;48.076;9.118;2023-03-19T02:41:10;5.83;;;3.00;;
8066;SDS011;4076;48.076;9.118;2023-03-19T02:43:37;5.47;;;3.10;;
8066;SDS011;4076;48.076;9.118;2023-03-19T02:46:05;4.70;;;2.70;;
8066;SDS011;4076;48.076;9.118;2023-03-19T02:48:33;5.20;;;2.63;;
8066;SDS011;4076;48.076;9.118;2023-03-19T02:51:00;5.40;;;2.77;;
8066;SDS011;4076;48.076;9.118;2023-03-19T02:53:26;4.87;;;3.17;;
8066;SDS011;4076;48.076;9.118;2023-03-19T02:55:51;5.37;;;2.77;;
8066;SDS011;4076;48.076;9.118;2023-03-19T02:58:17;4.67;;;2.73;;
8066;SDS011;4076;48.076;9.118;2023-03-19T03:00:43;5.60;;;2.97;;
8066;SDS011;4076;48.076;9.118;2023-03-19T03:03:09;4.50;;;2.67;;
8066;SDS011;4076;48.076;9.118;2023-03-19T03:05:35;3.87;;;2.53;;
8066;SDS011;4076;48.076;9.118;2023-03-19T03:08:01;4.70;;;2.80;;
8066;SDS011;4076;48.076;9.118;2023-03-19T03:10:28;5.37;;;3.50;;
8066;SDS011;4076;48.076;9.118;2023-03-19T03:12:53;4.43;;;2.30;;
8066;SDS011;4076;48.076;9.118;2023-03-19T03:15:20;4.33;;;2.70;;
8066;SDS011;4076;48.076;9.118;2023-03-19T03:17:45;7.87;;;4.10;;
8066;SDS011;4076;48.076;9.118;2023-03-19T03:20:12;5.50;;;3.10;;
8066;SDS011;4076;48.076;9.118;2023-03-19T03:22:38;4.00;;;2.10;;
8066;SDS011;4076;48.076;9.118;2023-03-19T03:25:05;4.30;;;2.60;;
8066;SDS011;4076;48.076;9.118;2023-03-19T03:27:31;4.70;;;2.57;;
8066;SDS011;4076;48.076;9.118;2023-03-19T03:29:57;6.23;;;3.03;;
8066;SDS011;4076;48.076;9.118;2023-03-19T03:32:22;5.20;;;3.40;;
8066;SDS011;4076;48.076;9.118;2023-03-19T03:34:48;11.83;;;4.53;;
8066;SDS011;4076;48.076;9.118;2023-03-19T03:37:14;5.60;;;2.90;;
8066;SDS011;4076;48.076;9.118;2023-03-19T03:39:41;4.70;;;2.90;;
8066;SDS011;4076;48.076;9.118;2023-03-19T03:42:07;7.90;;;3.37;;
8066;SDS011;4076;48.076;9.118;2023-03-19T03:44:32;4.00;;;2.50;;
8066;SDS011;4076;48.076;9.118;2023-03-19T03:46:58;3.70;;;2.20;;
8066;SDS011;4076;48.076;9.118;2023-03-19T03:49:23;5.40;;;2.87;;
8066;SDS011;4076;48.076;9.118;2023-03-19T03:51:49;5.30;;;3.50;;
8066;SDS011;4076;48.076;9.118;2023-03-19T03:54:15;5.47;;;2.80;;
8066;SDS011;4076;48.076;9.118;2023-03-19T03:56:40;4.00;;;2.53;;
8066;SDS011;4076;48.076;9.118;2023-03-19T03:59:06;5.90;;;2.90;;
8066;SDS011;4076;48.076;9.118;2023-03-19T04:01:32;8.30;;;3.57;;
8066;SDS011;4076;48.076;9.118;2023-03-19T04:03:58;7.60;;;2.67;;
8066;SDS011;4076;48.076;9.118;2023-03-19T04:06:23;6.90;;;3.00;;
8066;SDS011;4076;48.076;9.118;2023-03-19T04:08:50;5.30;;;2.50;;
8066;SDS011;4076;48.076;9.118;2023-03-19T04:11:16;5.53;;;2.97;;
8066;SDS011;4076;48.076;9.118;2023-03-19T04:13:42;7.00;;;4.57;;
8066;SDS011;4076;48.076;9.118;2023-03-19T04:16:08;4.30;;;2.73;;
8066;SDS011;4076;48.076;9.118;2023-03-19T04:18:35;4.60;;;2.43;;
8066;SDS011;4076;48.076;9.118;2023-03-19T04:21:01;4.93;;;3.23;;
8066;SDS011;4076;48.076;9.118;2023-03-19T04:23:28;4.90;;;3.47;;
8066;SDS011;4076;48.076;9.118;2023-03-19T04:26:02;6.63;;;3.67;;
8066;SDS011;4076;48.076;9.118;2023-03-19T04:28:29;4.87;;;2.70;;
8066;SDS011;4076;48.076;9.118;2023-03-19T04:30:59;4.30;;;2.40;;
8066;SDS011;4076;48.076;9.118;2023-03-19T04:33:25;4.43;;;2.30;;
8066;SDS011;4076;48.076;9.118;2023-03-19T04:35:50;13.70;;;2.83;;
8066;SDS011;4076;48.076;9.118;2023-03-19T04:38:16;5.77;;;3.30;;
8066;SDS011;4076;48.076;9.118;2023-03-19T04:40:42;5.50;;;2.87;;
8066;SDS011;4076;48.076;9.118;2023-03-19T04:43:07;5.23;;;3.47;;
8066;SDS011;4076;48.076;9.118;2023-03-19T04:45:33;6.53;;;2.90;;
8066;SDS011;4076;48.076;9.118;2023-03-19T04:47:58;4.57;;;3.10;;
8066;SDS011;4076;48.076;9.118;2023-03-19T04:50:25;6.27;;;3.00;;
8066;SDS011;4076;48.076;9.118;2023-03-19T04:52:51;4.27;;;2.67;;
8066;SDS011;4076;48.076;9.118;2023-03-19T04:55:17;9.17;;;2.90;;
8066;SDS011;4076;48.076;9.118;2023-03-19T04:57:42;5.70;;;2.53;;
8066;SDS011;4076;48.076;9.118;2023-03-19T05:00:08;6.63;;;3.97;;
8066;SDS011;4076;48.076;9.118;2023-03-19T05:02:34;5.13;;;2.67;;
8066;SDS011;4076;48.076;9.118;2023-03-19T05:05:00;4.73;;;3.10;;
8066;SDS011;4076;48.076;9.118;2023-03-19T05:07:26;5.87;;;2.60;;
8066;SDS011;4076;48.076;9.118;2023-03-19T05:09:51;6.27;;;3.00;;
8066;SDS011;4076;48.076;9.118;2023-03-19T05:12:17;6.27;;;3.43;;
8066;SDS011;4076;48.076;9.118;2023-03-19T05:14:42;5.07;;;3.67;;
8066;SDS011;4076;48.076;9.118;2023-03-19T05:17:08;4.50;;;2.80;;
8066;SDS011;4076;48.076;9.118;2023-03-19T05:19:35;5.63;;;3.43;;
8066;SDS011;4076;48.076;9.118;2023-03-19T05:22:02;5.43;;;3.23;;
8066;SDS011;4076;48.076;9.118;2023-03-19T05:24:28;6.50;;;2.90;;
8066;SDS011;4076;48.076;9.118;2023-03-19T05:26:53;4.87;;;2.73;;
8066;SDS011;4076;48.076;9.118;2023-03-19T05:29:19;3.57;;;2.67;;
8066;SDS011;4076;48.076;9.118;2023-03-19T05:31:44;5.20;;;2.63;;
8066;SDS011;4076;48.076;9.118;2023-03-19T05:34:10;3.83;;;2.40;;
8066;SDS011;4076;48.076;9.118;2023-03-19T05:36:35;5.07;;;2.93;;
8066;SDS011;4076;48.076;9.118;2023-03-19T05:39:01;6.00;;;3.37;;
8066;SDS011;4076;48.076;9.118;2023-03-19T05:41:27;3.90;;;2.40;;
8066;SDS011;4076;48.076;9.118;2023-03-19T05:43:53;6.47;;;3.40;;
8066;SDS011;4076;48.076;9.118;2023-03-19T05:46:18;5.50;;;2.83;;
8066;SDS011;4076;48.076;9.118;2023-03-19T05:48:44;4.50;;;3.03;;
8066;SDS011;4076;48.076;9.118;2023-03-19T05:51:09;4.87;;;3.03;;
8066;SDS011;4076;48.076;9.118;2023-03-19T05:53:35;5.10;;;2.83;;
8066;SDS011;4076;48.076;9.118;2023-03-19T05:56:01;6.07;;;3.33;;
8066;SDS011;4076;48.076;9.118;2023-03-19T05:58:27;3.87;;;2.40;;
8066;SDS011;4076;48.076;9.118;2023-03-19T06:00:53;4.70;;;3.03;;
8066;SDS011;4076;48.076;9.118;2023-03-19T06:03:20;6.30;;;3.23;;
8066;SDS011;4076;48.076;9.118;2023-03-19T06:05:50;4.87;;;2.60;;
8066;SDS011;4076;48.076;9.118;2023-03-19T06:08:16;5.70;;;2.77;;
8066;SDS011;4076;48.076;9.118;2023-03-19T06:10:42;3.70;;;2.23;;
8066;SDS011;4076;48.076;9.118;2023-03-19T06:13:08;5.90;;;3.10;;
8066;SDS011;4076;48.076;9.118;2023-03-19T06:15:34;5.37;;;2.87;;
8066;SDS011;4076;48.076;9.118;2023-03-19T06:17:59;5.53;;;2.50;;
8066;SDS011;4076;48.076;9.118;2023-03-19T06:20:25;5.00;;;2.53;;
8066;SDS011;4076;48.076;9.118;2023-03-19T06:22:51;5.53;;;2.40;;
8066;SDS011;4076;48.076;9.118;2023-03-19T06:25:17;4.43;;;2.37;;
8066;SDS011;4076;48.076;9.118;2023-03-19T06:27:42;5.13;;;2.13;;
8066;SDS011;4076;48.076;9.118;2023-03-19T06:30:08;5.20;;;2.37;;
8066;SDS011;4076;48.076;9.118;2023-03-19T06:32:34;4.70;;;2.53;;
8066;SDS011;4076;48.076;9.118;2023-03-19T06:35:00;4.00;;;2.40;;
8066;SDS011;4076;48.076;9.118;2023-03-19T06:37:25;5.20;;;2.93;;
8066;SDS011;4076;48.076;9.118;2023-03-19T06:39:51;8.03;;;4.77;;
8066;SDS011;4076;48.076;9.118;2023-03-19T06:42:18;9.23;;;5.80;;
8066;SDS011;4076;48.076;9.118;2023-03-19T06:44:45;7.07;;;5.23;;
8066;SDS011;4076;48.076;9.118;2023-03-19T06:47:11;13.47;;;5.50;;
8066;SDS011;4076;48.076;9.118;2023-03-19T06:49:38;10.50;;;5.37;;
8066;SDS011;4076;48.076;9.118;2023-03-19T06:52:04;7.30;;;4.53;;
8066;SDS011;4076;48.076;9.118;2023-03-19T06:54:30;8.43;;;4.30;;
8066;SDS011;4076;48.076;9.118;2023-03-19T06:56:56;6.03;;;4.40;;
8066;SDS011;4076;48.076;9.118;2023-03-19T06:59:21;8.80;;;4.80;;
8066;SDS011;4076;48.076;9.118;2023-03-19T07:01:47;6.60;;;3.37;;
8066;SDS011;4076;48.076;9.118;2023-03-19T07:04:13;7.07;;;4.20;;
8066;SDS011;4076;48.076;9.118;2023-03-19T07:06:38;11.07;;;9.90;;
8066;SDS011;4076;48.076;9.118;2023-03-19T07:09:04;14.73;;;11.73;;
8066;SDS011;4076;48.076;9.118;2023-03-19T07:11:30;7.67;;;4.83;;
8066;SDS011;4076;48.076;9.118;2023-03-19T07:13:55;15.13;;;12.07;;
8066;SDS011;4076;48.076;9.118;2023-03-19T07:16:21;9.20;;;6.10;;
8066;SDS011;4076;48.076;9.118;2023-03-19T07:18:46;7.70;;;4.93;;
8066;SDS011;4076;48.076;9.118;2023-03-19T07:21:12;8.27;;;4.97;;
8066;SDS011;4076;48.076;9.118;2023-03-19T07:23:37;7.30;;;4.43;;
8066;SDS011;4076;48.076;9.118;2023-03-19T07:26:03;13.83;;;11.60;;
8066;SDS011;4076;48.076;9.118;2023-03-19T07:28:28;11.03;;;7.00;;
8066;SDS011;4076;48.076;9.118;2023-03-19T07:30:54;8.30;;;5.43;;
8066;SDS011;4076;48.076;9.118;2023-03-19T07:33:20;6.50;;;4.17;;
8066;SDS011;4076;48.076;9.118;2023-03-19T07:35:46;8.13;;;5.17;;
8066;SDS011;4076;48.076;9.118;2023-03-19T07:38:11;10.10;;;7.77;;
8066;SDS011;4076;48.076;9.118;2023-03-19T07:40:38;8.40;;;6.07;;
8066;SDS011;4076;48.076;9.118;2023-03-19T07:43:04;6.87;;;5.10;;
8066;SDS011;4076;48.076;9.118;2023-03-19T07:45:30;5.17;;;4.27;;
8066;SDS011;4076;48.076;9.118;2023-03-19T07:47:55;8.43;;;5.37;;
8066;SDS011;4076;48.076;9.118;2023-03-19T07:50:21;9.43;;;7.60;;
8066;SDS011;4076;48.076;9.118;2023-03-19T07:52:47;9.07;;;7.20;;
8066;SDS011;4076;48.076;9.118;2023-03-19T07:55:13;7.77;;;6.33;;
8066;SDS011;4076;48.076;9.118;2023-03-19T07:57:39;8.53;;;5.80;;
8066;SDS011;4076;48.076;9.118;2023-03-19T08:00:05;6.47;;;5.60;;
8066;SDS011;4076;48.076;9.118;2023-03-19T08:02:32;8.93;;;6.87;;
8066;SDS011;4076;48.076;9.118;2023-03-19T08:04:57;5.80;;;4.23;;
8066;SDS011;4076;48.076;9.118;2023-03-19T08:07:26;5.53;;;4.20;;
8066;SDS011;4076;48.076;9.118;2023-03-19T08:09:51;7.07;;;5.77;;
8066;SDS011;4076;48.076;9.118;2023-03-19T08:12:17;6.60;;;5.43;;
8066;SDS011;4076;48.076;9.118;2023-03-19T08:14:43;21.67;;;17.83;;
8066;SDS011;4076;48.076;9.118;2023-03-19T08:17:08;12.57;;;11.27;;
8066;SDS011;4076;48.076;9.118;2023-03-19T08:19:34;7.40;;;5.97;;
8066;SDS011;4076;48.076;9.118;2023-03-19T08:22:00;7.00;;;4.87;;
8066;SDS011;4076;48.076;9.118;2023-03-19T08:24:25;5.63;;;4.47;;
8066;SDS011;4076;48.076;9.118;2023-03-19T08:26:51;5.30;;;3.70;;
8066;SDS011;4076;48.076;9.118;2023-03-19T08:29:17;5.77;;;3.63;;
8066;SDS011;4076;48.076;9.118;2023-03-19T08:31:42;6.50;;;3.87;;
8066;SDS011;4076;48.076;9.118;2023-03-19T08:34:08;6.40;;;4.00;;
8066;SDS011;4076;48.076;9.118;2023-03-19T08:36:34;15.00;;;6.63;;
8066;SDS011;4076;48.076;9.118;2023-03-19T08:39:00;9.73;;;6.03;;
8066;SDS011;4076;48.076;9.118;2023-03-19T08:41:26;10.27;;;5.40;;
8066;SDS011;4076;48.076;9.118;2023-03-19T08:43:51;6.77;;;5.03;;
8066;SDS011;4076;48.076;9.118;2023-03-19T08:46:17;6.60;;;4.50;;
8066;SDS011;4076;48.076;9.118;2023-03-19T08:48:43;6.27;;;4.17;;
8066;SDS011;4076;48.076;9.118;2023-03-19T08:51:09;7.00;;;4.37;;
8066;SDS011;4076;48.076;9.118;2023-03-19T08:53:35;6.10;;;5.50;;
8066;SDS011;4076;48.076;9.118;2023-03-19T08:56:02;7.63;;;4.53;;
8066;SDS011;4076;48.076;9.118;2023-03-19T08:58:30;8.53;;;5.40;;
8066;SDS011;4076;48.076;9.118;2023-03-19T09:01:03;7.13;;;4.60;;
8066;SDS011;4076;48.076;9.118;2023-03-19T09:03:34;6.23;;;4.53;;
8066;SDS011;4076;48.076;9.118;2023-03-19T09:06:01;6.37;;;4.50;;
8066;SDS011;4076;48.076;9.118;2023-03-19T09:08:28;7.80;;;5.10;;
8066;SDS011;4076;48.076;9.118;2023-03-19T09:10:55;6.10;;;3.83;;
8066;SDS011;4076;48.076;9.118;2023-03-19T09:13:21;6.10;;;4.00;;
8066;SDS011;4076;48.076;9.118;2023-03-19T09:15:47;7.90;;;5.20;;
8066;SDS011;4076;48.076;9.118;2023-03-19T09:18:13;5.73;;;4.20;;
8066;SDS011;4076;48.076;9.118;2023-03-19T09:20:39;6.13;;;4.43;;
8066;SDS011;4076;48.076;9.118;2023-03-19T09:23:05;6.47;;;4.10;;
8066;SDS011;4076;48.076;9.118;2023-03-19T09:25:30;6.33;;;4.90;;
8066;SDS011;4076;48.076;9.118;2023-03-19T09:27:56;5.90;;;4.23;;
8066;SDS011;4076;48.076;9.118;2023-03-19T09:30:21;7.07;;;4.70;;
8066;SDS011;4076;48.076;9.118;2023-03-19T09:32:47;5.60;;;4.50;;
8066;SDS011;4076;48.076;9.118;2023-03-19T09:35:12;6.20;;;5.60;;
8066;SDS011;4076;48.076;9.118;2023-03-19T09:37:38;5.40;;;4.13;;
8066;SDS011;4076;48.076;9.118;2023-03-19T09:40:04;5.83;;;4.70;;
8066;SDS011;4076;48.076;9.118;2023-03-19T09:42:52;8.83;;;4.37;;
8066;SDS011;4076;48.076;9.118;2023-03-19T09:45:41;5.20;;;3.80;;
8066;SDS011;4076;48.076;9.118;2023-03-19T09:48:11;6.20;;;3.90;;
8066;SDS011;4076;48.076;9.118;2023-03-19T09:50:42;5.60;;;3.10;;
8066;SDS011;4076;48.076;9.118;2023-03-19T09:53:17;4.33;;;3.27;;
8066;SDS011;4076;48.076;9.118;2023-03-19T09:55:51;7.70;;;4.17;;
8066;SDS011;4076;48.076;9.118;2023-03-19T09:58:22;4.40;;;3.57;;
8066;SDS011;4076;48.076;9.118;2023-03-19T10:00:53;5.80;;;4.30;;
8066;SDS011;4076;48.076;9.118;2023-03-19T10:14:28;5.60;;;3.30;;
8066;SDS011;4076;48.076;9.118;2023-03-19T10:17:16;4.43;;;3.37;;
8066;SDS011;4076;48.076;9.118;2023-03-19T10:19:52;5.43;;;4.10;;
8066;SDS011;4076;48.076;9.118;2023-03-19T10:22:27;6.20;;;3.30;;
8066;SDS011;4076;48.076;9.118;2023-03-19T10:25:04;8.80;;;3.27;;
8066;SDS011;4076;48.076;9.118;2023-03-19T10:27:34;7.63;;;4.20;;
8066;SDS011;4076;48.076;9.118;2023-03-19T10:30:04;5.87;;;3.43;;
8066;SDS011;4076;48.076;9.118;2023-03-19T10:32:43;4.13;;;2.80;;
8066;SDS011;4076;48.076;9.118;2023-03-19T10:35:18;3.87;;;3.07;;
8066;SDS011;4076;48.076;9.118;2023-03-19T10:37:47;7.00;;;3.47;;
8066;SDS011;4076;48.076;9.118;2023-03-19T10:40:26;4.77;;;3.80;;
8066;SDS011;4076;48.076;9.118;2023-03-19T10:43:19;4.43;;;3.50;;
8066;SDS011;4076;48.076;9.118;2023-03-19T10:45:49;4.27;;;3.70;;
8066;SDS011;4076;48.076;9.118;2023-03-19T10:48:15;5.47;;;3.63;;
8066;SDS011;4076;48.076;9.118;2023-03-19T10:50:49;5.93;;;4.50;;
8066;SDS011;4076;48.076;9.118;2023-03-19T10:53:25;7.20;;;4.47;;
8066;SDS011;4076;48.076;9.118;2023-03-19T10:56:02;5.40;;;4.00;;
8066;SDS011;4076;48.076;9.118;2023-03-19T10:58:40;5.03;;;2.67;;
8066;SDS011;4076;48.076;9.118;2023-03-19T11:01:19;5.67;;;3.90;;
8066;SDS011;4076;48.076;9.118;2023-03-19T11:03:51;5.73;;;4.30;;
8066;SDS011;4076;48.076;9.118;2023-03-19T11:06:25;8.93;;;4.10;;
8066;SDS011;4076;48.076;9.118;2023-03-19T11:19:31;5.40;;;4.87;;
8066;SDS011;4076;48.076;9.118;2023-03-19T11:24:36;7.10;;;4.57;;
8066;SDS011;4076;48.076;9.118;2023-03-19T11:27:03;6.17;;;3.73;;
8066;SDS011;4076;48.076;9.118;2023-03-19T11:29:29;5.17;;;3.57;;
8066;SDS011;4076;48.076;9.118;2023-03-19T11:35:17;5.00;;;3.90;;
8066;SDS011;4076;48.076;9.118;2023-03-19T11:40:24;4.13;;;3.20;;
8066;SDS011;4076;48.076;9.118;2023-03-19T11:46:20;12.87;;;8.40;;
8066;SDS011;4076;48.076;9.118;2023-03-19T11:51:48;4.23;;;3.17;;
8066;SDS011;4076;48.076;9.118;2023-03-19T11:54:37;7.93;;;4.67;;
8066;SDS011;4076;48.076;9.118;2023-03-19T11:57:11;4.43;;;2.80;;
8066;SDS011;4076;48.076;9.118;2023-03-19T11:59:53;5.67;;;3.47;;
8066;SDS011;4076;48.076;9.118;2023-03-19T12:05:30;4.77;;;3.33;;
8066;SDS011;4076;48.076;9.118;2023-03-19T12:11:12;4.90;;;2.97;;
8066;SDS011;4076;48.076;9.118;2023-03-19T12:13:59;6.20;;;3.00;;
8066;SDS011;4076;48.076;9.118;2023-03-19T12:19:17;4.90;;;3.20;;
8066;SDS011;4076;48.076;9.118;2023-03-19T12:22:01;4.17;;;3.77;;
8066;SDS011;4076;48.076;9.118;2023-03-19T12:24:53;4.50;;;2.97;;
8066;SDS011;4076;48.076;9.118;2023-03-19T12:27:49;4.50;;;3.30;;
8066;SDS011;4076;48.076;9.118;2023-03-19T12:30:37;6.73;;;4.93;;
8066;SDS011;4076;48.076;9.118;2023-03-19T12:35:36;4.77;;;3.03;;
8066;SDS011;4076;48.076;9.118;2023-03-19T12:38:15;3.30;;;2.63;;
8066;SDS011;4076;48.076;9.118;2023-03-19T12:40:58;4.07;;;2.70;;
8066;SDS011;4076;48.076;9.118;2023-03-19T12:43:30;4.13;;;3.37;;
8066;SDS011;4076;48.076;9.118;2023-03-19T12:46:17;4.63;;;2.80;;
8066;SDS011;4076;48.076;9.118;2023-03-19T12:48:50;3.17;;;2.70;;
8066;SDS011;4076;48.076;9.118;2023-03-19T12:51:21;6.93;;;2.90;;
8066;SDS011;4076;48.076;9.118;2023-03-19T12:53:53;3.67;;;2.63;;
8066;SDS011;4076;48.076;9.118;2023-03-19T12:56:38;9.83;;;4.77;;
8066;SDS011;4076;48.076;9.118;2023-03-19T13:02:21;6.30;;;4.27;;
8066;SDS011;4076;48.076;9.118;2023-03-19T13:07:35;9.50;;;5.53;;
8066;SDS011;4076;48.076;9.118;2023-03-19T13:10:24;5.80;;;3.53;;
8066;SDS011;4076;48.076;9.118;2023-03-19T13:12:50;4.07;;;2.20;;
8066;SDS011;4076;48.076;9.118;2023-03-19T13:23:47;10.40;;;4.83;;
8066;SDS011;4076;48.076;9.118;2023-03-19T13:26:15;4.00;;;2.77;;
8066;SDS011;4076;48.076;9.118;2023-03-19T13:28:58;3.93;;;3.10;;
8066;SDS011;4076;48.076;9.118;2023-03-19T13:31:26;4.97;;;2.67;;
8066;SDS011;4076;48.076;9.118;2023-03-19T13:34:04;3.57;;;2.50;;
8066;SDS011;4076;48.076;9.118;2023-03-19T13:37:03;6.60;;;3.47;;
8066;SDS011;4076;48.076;9.118;2023-03-19T13:39:34;5.20;;;2.83;;
8066;SDS011;4076;48.076;9.118;2023-03-19T13:46:56;3.67;;;2.33;;
8066;SDS011;4076;48.076;9.118;2023-03-19T13:49:26;5.37;;;4.73;;
8066;SDS011;4076;48.076;9.118;2023-03-19T13:51:53;5.90;;;2.90;;
8066;SDS011;4076;48.076;9.118;2023-03-19T13:54:40;3.40;;;2.90;;
8066;SDS011;4076;48.076;9.118;2023-03-19T13:59:40;3.57;;;2.50;;
8066;SDS011;4076;48.076;9.118;2023-03-19T14:04:49;5.70;;;3.00;;
8066;SDS011;4076;48.076;9.118;2023-03-19T14:07:26;4.33;;;3.23;;
8066;SDS011;4076;48.076;9.118;2023-03-19T14:10:09;3.73;;;2.50;;
8066;SDS011;4076;48.076;9.118;2023-03-19T14:12:44;3.80;;;2.47;;
8066;SDS011;4076;48.076;9.118;2023-03-19T14:15:14;7.50;;;3.30;;
8066;SDS011;4076;48.076;9.118;2023-03-19T14:17:58;5.47;;;4.30;;
8066;SDS011;4076;48.076;9.118;2023-03-19T14:20:33;3.97;;;2.40;;
8066;SDS011;4076;48.076;9.118;2023-03-19T14:25:55;3.70;;;2.90;;
8066;SDS011;4076;48.076;9.118;2023-03-19T14:31:17;4.37;;;2.83;;
8066;SDS011;4076;48.076;9.118;2023-03-19T14:33:58;4.30;;;2.80;;
8066;SDS011;4076;48.076;9.118;2023-03-19T14:36:25;4.47;;;2.73;;
8066;SDS011;4076;48.076;9.118;2023-03-19T14:39:11;4.13;;;2.10;;
8066;SDS011;4076;48.076;9.118;2023-03-19T14:41:45;3.43;;;2.40;;
8066;SDS011;4076;48.076;9.118;2023-03-19T14:46:54;7.63;;;2.93;;
8066;SDS011;4076;48.076;9.118;2023-03-19T14:55:14;3.60;;;2.63;;
8066;SDS011;4076;48.076;9.118;2023-03-19T14:57:41;3.87;;;2.67;;
8066;SDS011;4076;48.076;9.118;2023-03-19T15:00:17;3.20;;;2.30;;
8066;SDS011;4076;48.076;9.118;2023-03-19T15:02:47;3.80;;;2.70;;
8066;SDS011;4076;48.076;9.118;2023-03-19T15:07:54;6.40;;;4.03;;
8066;SDS011;4076;48.076;9.118;2023-03-19T15:10:29;3.50;;;2.87;;
8066;SDS011;4076;48.076;9.118;2023-03-19T15:13:23;3.43;;;2.90;;
8066;SDS011;4076;48.076;9.118;2023-03-19T15:18:35;6.50;;;2.10;;
8066;SDS011;4076;48.076;9.118;2023-03-19T15:21:01;2.50;;;1.83;;
8066;SDS011;4076;48.076;9.118;2023-03-19T15:23:28;3.53;;;1.87;;
8066;SDS011;4076;48.076;9.118;2023-03-19T15:25:56;3.70;;;1.90;;
8066;SDS011;4076;48.076;9.118;2023-03-19T15:28:25;3.37;;;1.70;;
8066;SDS011;4076;48.076;9.118;2023-03-19T15:33:32;2.90;;;1.90;;
8066;SDS011;4076;48.076;9.118;2023-03-19T15:36:02;2.63;;;1.70;;
8066;SDS011;4076;48.076;9.118;2023-03-19T15:38:36;4.20;;;1.83;;
8066;SDS011;4076;48.076;9.118;2023-03-19T15:41:05;3.90;;;1.93;;
8066;SDS011;4076;48.076;9.118;2023-03-19T15:43:33;4.20;;;2.47;;
8066;SDS011;4076;48.076;9.118;2023-03-19T15:46:02;3.30;;;2.00;;
8066;SDS011;4076;48.076;9.118;2023-03-19T15:48:39;3.50;;;2.70;;
8066;SDS011;4076;48.076;9.118;2023-03-19T15:51:15;4.33;;;2.57;;
8066;SDS011;4076;48.076;9.118;2023-03-19T15:53:42;3.57;;;2.30;;
8066;SDS011;4076;48.076;9.118;2023-03-19T15:56:10;3.80;;;1.60;;
8066;SDS011;4076;48.076;9.118;2023-03-19T15:58:39;4.20;;;2.40;;
8066;SDS011;4076;48.076;9.118;2023-03-19T16:01:08;4.17;;;2.33;;
8066;SDS011;4076;48.076;9.118;2023-03-19T16:03:37;4.93;;;2.83;;
8066;SDS011;4076;48.076;9.118;2023-03-19T16:06:05;3.27;;;1.67;;
8066;SDS011;4076;48.076;9.118;2023-03-19T16:08:44;3.80;;;2.07;;
8066;SDS011;4076;48.076;9.118;2023-03-19T16:11:28;4.47;;;2.30;;
8066;SDS011;4076;48.076;9.118;2023-03-19T16:14:01;3.47;;;1.80;;
8066;SDS011;4076;48.076;9.118;2023-03-19T16:16:43;3.30;;;1.80;;
8066;SDS011;4076;48.076;9.118;2023-03-19T16:22:05;3.30;;;2.10;;
8066;SDS011;4076;48.076;9.118;2023-03-19T16:24:37;3.63;;;2.23;;
8066;SDS011;4076;48.076;9.118;2023-03-19T16:27:05;3.63;;;1.83;;
8066;SDS011;4076;48.076;9.118;2023-03-19T16:29:39;2.90;;;1.50;;
8066;SDS011;4076;48.076;9.118;2023-03-19T16:34:40;4.63;;;1.90;;
8066;SDS011;4076;48.076;9.118;2023-03-19T16:43:04;3.50;;;1.70;;
8066;SDS011;4076;48.076;9.118;2023-03-19T16:45:51;3.20;;;1.67;;
8066;SDS011;4076;48.076;9.118;2023-03-19T16:48:28;4.80;;;2.27;;
8066;SDS011;4076;48.076;9.118;2023-03-19T16:50:54;8.20;;;2.33;;
8066;SDS011;4076;48.076;9.118;2023-03-19T16:53:24;4.37;;;2.17;;
8066;SDS011;4076;48.076;9.118;2023-03-19T16:55:53;5.30;;;4.00;;
8066;SDS011;4076;48.076;9.118;2023-03-19T16:58:27;3.80;;;2.30;;
8066;SDS011;4076;48.076;9.118;2023-03-19T17:00:59;4.60;;;3.17;;
8066;SDS011;4076;48.076;9.118;2023-03-19T17:03:25;5.77;;;3.73;;
8066;SDS011;4076;48.076;9.118;2023-03-19T17:05:53;6.30;;;4.67;;
8066;SDS011;4076;48.076;9.118;2023-03-19T17:08:20;4.40;;;2.77;;
8066;SDS011;4076;48.076;9.118;2023-03-19T17:10:47;5.00;;;2.83;;
8066;SDS011;4076;48.076;9.118;2023-03-19T17:13:25;4.60;;;2.57;;